sensor_id;sensor_type;location;lat;lon;timestamp;P1;durP1;ratioP1;P2;durP2;ratioP2
18194;SDS011;9223;50.988;3.162;2023-01-28T00:05:25;14.40;;;9.63;;
18194;SDS011;9223;50.988;3.162;2023-01-28T00:11:31;13.95;;;8.98;;
18194;SDS011;9223;50.988;3.162;2023-01-28T00:17:35;13.20;;;9.10;;
18194;SDS011;9223;50.988;3.162;2023-01-28T00:23:39;11.70;;;8.13;;
18194;SDS011;9223;50.988;3.162;2023-01-28T00:29:44;12.10;;;8.27;;
18194;SDS011;9223;50.988;3.162;2023-01-28T00:35:56;10.23;;;7.75;;
18194;SDS011;9223;50.988;3.162;2023-01-28T00:42:00;10.20;;;7.32;;
18194;SDS011;9223;50.988;3.162;2023-01-28T00:48:05;8.95;;;6.72;;
18194;SDS011;9223;50.988;3.162;2023-01-28T00:54:09;11.63;;;7.25;;
18194;SDS011;9223;50.988;3.162;2023-01-28T01:00:14;10.05;;;7.03;;
18194;SDS011;9223;50.988;3.162;2023-01-28T01:06:19;11.20;;;7.15;;
18194;SDS011;9223;50.988;3.162;2023-01-28T01:12:23;10.45;;;7.78;;
18194;SDS011;9223;50.988;3.162;2023-01-28T01:18:26;11.23;;;7.20;;
18194;SDS011;9223;50.988;3.162;2023-01-28T01:24:31;9.82;;;6.80;;
18194;SDS011;9223;50.988;3.162;2023-01-28T01:30:35;9.52;;;7.07;;
18194;SDS011;9223;50.988;3.162;2023-01-28T01:36:38;10.52;;;7.47;;
18194;SDS011;9223;50.988;3.162;2023-01-28T01:42:45;10.48;;;7.47;;
18194;SDS011;9223;50.988;3.162;2023-01-28T01:48:49;10.73;;;7.32;;
18194;SDS011;9223;50.988;3.162;2023-01-28T01:54:55;9.65;;;7.30;;
18194;SDS011;9223;50.988;3.162;2023-01-28T02:01:00;12.57;;;7.82;;
18194;SDS011;9223;50.988;3.162;2023-01-28T02:07:04;10.55;;;7.82;;
18194;SDS011;9223;50.988;3.162;2023-01-28T02:13:09;11.70;;;8.65;;
18194;SDS011;9223;50.988;3.162;2023-01-28T02:19:14;12.07;;;8.13;;
18194;SDS011;9223;50.988;3.162;2023-01-28T02:25:26;12.30;;;8.73;;
18194;SDS011;9223;50.988;3.162;2023-01-28T02:31:35;12.90;;;9.75;;
18194;SDS011;9223;50.988;3.162;2023-01-28T02:37:43;14.27;;;9.52;;
18194;SDS011;9223;50.988;3.162;2023-01-28T02:43:48;13.57;;;9.57;;
18194;SDS011;9223;50.988;3.162;2023-01-28T02:49:53;14.00;;;9.57;;
18194;SDS011;9223;50.988;3.162;2023-01-28T02:56:01;13.18;;;9.52;;
18194;SDS011;9223;50.988;3.162;2023-01-28T03:02:07;13.38;;;9.85;;
18194;SDS011;9223;50.988;3.162;2023-01-28T03:08:14;13.18;;;9.70;;
18194;SDS011;9223;50.988;3.162;2023-01-28T03:14:36;14.95;;;10.00;;
18194;SDS011;9223;50.988;3.162;2023-01-28T03:21:00;12.52;;;8.85;;
18194;SDS011;9223;50.988;3.162;2023-01-28T03:27:25;14.57;;;10.13;;
18194;SDS011;9223;50.988;3.162;2023-01-28T03:33:47;12.45;;;9.23;;
18194;SDS011;9223;50.988;3.162;2023-01-28T03:40:10;13.70;;;9.23;;
18194;SDS011;9223;50.988;3.162;2023-01-28T03:46:15;14.40;;;9.43;;
18194;SDS011;9223;50.988;3.162;2023-01-28T03:52:20;13.45;;;9.65;;
18194;SDS011;9223;50.988;3.162;2023-01-28T03:58:24;12.77;;;9.57;;
18194;SDS011;9223;50.988;3.162;2023-01-28T04:04:48;13.50;;;9.30;;
18194;SDS011;9223;50.988;3.162;2023-01-28T04:10:52;13.55;;;9.70;;
18194;SDS011;9223;50.988;3.162;2023-01-28T04:16:55;13.70;;;9.43;;
18194;SDS011;9223;50.988;3.162;2023-01-28T04:23:00;13.80;;;9.80;;
18194;SDS011;9223;50.988;3.162;2023-01-28T04:29:04;15.25;;;10.20;;
18194;SDS011;9223;50.988;3.162;2023-01-28T04:35:08;13.70;;;9.85;;
18194;SDS011;9223;50.988;3.162;2023-01-28T04:41:13;14.30;;;10.32;;
18194;SDS011;9223;50.988;3.162;2023-01-28T04:47:17;16.25;;;10.70;;
18194;SDS011;9223;50.988;3.162;2023-01-28T04:53:20;13.13;;;9.65;;
18194;SDS011;9223;50.988;3.162;2023-01-28T04:59:25;14.43;;;10.55;;
18194;SDS011;9223;50.988;3.162;2023-01-28T05:05:29;14.80;;;10.35;;
18194;SDS011;9223;50.988;3.162;2023-01-28T05:11:32;15.45;;;10.30;;
18194;SDS011;9223;50.988;3.162;2023-01-28T05:17:40;15.52;;;10.52;;
18194;SDS011;9223;50.988;3.162;2023-01-28T05:23:44;17.55;;;10.95;;
18194;SDS011;9223;50.988;3.162;2023-01-28T05:29:47;16.08;;;10.70;;
18194;SDS011;9223;50.988;3.162;2023-01-28T05:35:52;17.08;;;11.18;;
18194;SDS011;9223;50.988;3.162;2023-01-28T05:41:56;18.35;;;11.13;;
18194;SDS011;9223;50.988;3.162;2023-01-28T05:47:59;15.45;;;10.77;;
18194;SDS011;9223;50.988;3.162;2023-01-28T05:54:04;14.63;;;10.73;;
18194;SDS011;9223;50.988;3.162;2023-01-28T06:00:08;17.55;;;11.90;;
18194;SDS011;9223;50.988;3.162;2023-01-28T06:06:11;16.25;;;10.77;;
18194;SDS011;9223;50.988;3.162;2023-01-28T06:12:16;15.32;;;11.00;;
18194;SDS011;9223;50.988;3.162;2023-01-28T06:18:20;17.25;;;12.05;;
18194;SDS011;9223;50.988;3.162;2023-01-28T06:24:24;16.13;;;11.23;;
18194;SDS011;9223;50.988;3.162;2023-01-28T06:30:28;20.75;;;13.60;;
18194;SDS011;9223;50.988;3.162;2023-01-28T06:36:32;19.20;;;12.55;;
18194;SDS011;9223;50.988;3.162;2023-01-28T06:42:35;17.55;;;13.05;;
18194;SDS011;9223;50.988;3.162;2023-01-28T06:48:40;18.30;;;13.02;;
18194;SDS011;9223;50.988;3.162;2023-01-28T06:54:44;19.23;;;13.50;;
18194;SDS011;9223;50.988;3.162;2023-01-28T07:00:47;18.77;;;13.15;;
18194;SDS011;9223;50.988;3.162;2023-01-28T07:06:52;18.88;;;13.32;;
18194;SDS011;9223;50.988;3.162;2023-01-28T07:12:56;21.58;;;13.73;;
18194;SDS011;9223;50.988;3.162;2023-01-28T07:18:59;24.70;;;13.32;;
18194;SDS011;9223;50.988;3.162;2023-01-28T07:25:04;23.25;;;13.57;;
18194;SDS011;9223;50.988;3.162;2023-01-28T07:31:08;22.70;;;13.18;;
18194;SDS011;9223;50.988;3.162;2023-01-28T07:37:12;20.73;;;13.43;;
18194;SDS011;9223;50.988;3.162;2023-01-28T07:43:17;18.33;;;13.25;;
18194;SDS011;9223;50.988;3.162;2023-01-28T07:49:20;20.13;;;13.95;;
18194;SDS011;9223;50.988;3.162;2023-01-28T07:55:24;20.67;;;13.77;;
18194;SDS011;9223;50.988;3.162;2023-01-28T08:01:32;20.40;;;14.27;;
18194;SDS011;9223;50.988;3.162;2023-01-28T08:07:36;20.23;;;13.25;;
18194;SDS011;9223;50.988;3.162;2023-01-28T08:13:40;21.08;;;14.63;;
18194;SDS011;9223;50.988;3.162;2023-01-28T08:19:45;20.88;;;14.30;;
18194;SDS011;9223;50.988;3.162;2023-01-28T08:25:48;21.40;;;14.70;;
18194;SDS011;9223;50.988;3.162;2023-01-28T08:31:51;21.33;;;14.80;;
18194;SDS011;9223;50.988;3.162;2023-01-28T08:37:57;21.00;;;14.63;;
18194;SDS011;9223;50.988;3.162;2023-01-28T08:44:01;23.65;;;14.95;;
18194;SDS011;9223;50.988;3.162;2023-01-28T08:50:05;19.70;;;14.20;;
18194;SDS011;9223;50.988;3.162;2023-01-28T08:56:10;20.23;;;13.63;;
18194;SDS011;9223;50.988;3.162;2023-01-28T09:02:14;20.65;;;13.50;;
18194;SDS011;9223;50.988;3.162;2023-01-28T09:08:31;20.48;;;14.65;;
18194;SDS011;9223;50.988;3.162;2023-01-28T09:14:36;24.05;;;15.88;;
18194;SDS011;9223;50.988;3.162;2023-01-28T09:20:40;22.95;;;14.85;;
18194;SDS011;9223;50.988;3.162;2023-01-28T09:26:43;19.63;;;13.98;;
18194;SDS011;9223;50.988;3.162;2023-01-28T09:32:50;19.40;;;13.70;;
18194;SDS011;9223;50.988;3.162;2023-01-28T09:38:53;22.45;;;15.05;;
18194;SDS011;9223;50.988;3.162;2023-01-28T09:45:00;21.45;;;14.77;;
18194;SDS011;9223;50.988;3.162;2023-01-28T09:51:08;20.02;;;13.85;;
18194;SDS011;9223;50.988;3.162;2023-01-28T09:57:13;18.52;;;12.88;;
18194;SDS011;9223;50.988;3.162;2023-01-28T10:03:25;18.92;;;13.73;;
18194;SDS011;9223;50.988;3.162;2023-01-28T10:09:34;20.48;;;13.85;;
18194;SDS011;9223;50.988;3.162;2023-01-28T10:15:49;18.48;;;12.05;;
18194;SDS011;9223;50.988;3.162;2023-01-28T10:21:55;17.42;;;12.57;;
18194;SDS011;9223;50.988;3.162;2023-01-28T10:28:04;17.50;;;12.07;;
18194;SDS011;9223;50.988;3.162;2023-01-28T10:34:12;15.93;;;11.32;;
18194;SDS011;9223;50.988;3.162;2023-01-28T10:40:19;16.15;;;11.77;;
18194;SDS011;9223;50.988;3.162;2023-01-28T10:46:25;17.70;;;12.25;;
18194;SDS011;9223;50.988;3.162;2023-01-28T10:52:30;18.10;;;12.30;;
18194;SDS011;9223;50.988;3.162;2023-01-28T10:58:35;18.63;;;13.10;;
18194;SDS011;9223;50.988;3.162;2023-01-28T11:04:40;13.23;;;9.73;;
18194;SDS011;9223;50.988;3.162;2023-01-28T11:10:44;13.15;;;9.57;;
18194;SDS011;9223;50.988;3.162;2023-01-28T11:16:49;11.77;;;9.30;;
18194;SDS011;9223;50.988;3.162;2023-01-28T11:22:54;12.25;;;8.77;;
18194;SDS011;9223;50.988;3.162;2023-01-28T11:28:58;12.93;;;9.00;;
18194;SDS011;9223;50.988;3.162;2023-01-28T11:35:02;12.70;;;8.73;;
18194;SDS011;9223;50.988;3.162;2023-01-28T11:41:13;11.55;;;8.73;;
18194;SDS011;9223;50.988;3.162;2023-01-28T11:47:31;11.55;;;8.68;;
18194;SDS011;9223;50.988;3.162;2023-01-28T12:00:12;13.35;;;9.05;;
18194;SDS011;9223;50.988;3.162;2023-01-28T12:06:38;12.55;;;8.88;;
18194;SDS011;9223;50.988;3.162;2023-01-28T12:12:50;11.48;;;7.82;;
18194;SDS011;9223;50.988;3.162;2023-01-28T12:19:04;14.40;;;10.80;;
18194;SDS011;9223;50.988;3.162;2023-01-28T12:25:14;12.27;;;9.00;;
18194;SDS011;9223;50.988;3.162;2023-01-28T12:31:34;14.35;;;9.63;;
18194;SDS011;9223;50.988;3.162;2023-01-28T12:37:44;13.02;;;9.00;;
18194;SDS011;9223;50.988;3.162;2023-01-28T12:43:54;12.65;;;7.88;;
18194;SDS011;9223;50.988;3.162;2023-01-28T12:50:01;15.88;;;8.60;;
18194;SDS011;9223;50.988;3.162;2023-01-28T12:56:07;10.85;;;8.18;;
18194;SDS011;9223;50.988;3.162;2023-01-28T13:02:15;9.07;;;6.28;;
18194;SDS011;9223;50.988;3.162;2023-01-28T13:08:21;9.05;;;6.20;;
18194;SDS011;9223;50.988;3.162;2023-01-28T13:14:27;10.30;;;5.95;;
18194;SDS011;9223;50.988;3.162;2023-01-28T13:20:36;7.78;;;6.00;;
18194;SDS011;9223;50.988;3.162;2023-01-28T13:26:41;7.82;;;6.43;;
18194;SDS011;9223;50.988;3.162;2023-01-28T13:32:53;9.18;;;6.85;;
18194;SDS011;9223;50.988;3.162;2023-01-28T13:39:00;7.03;;;5.47;;
18194;SDS011;9223;50.988;3.162;2023-01-28T13:45:19;7.15;;;5.93;;
18194;SDS011;9223;50.988;3.162;2023-01-28T13:51:26;7.28;;;5.28;;
18194;SDS011;9223;50.988;3.162;2023-01-28T13:57:36;6.00;;;5.00;;
18194;SDS011;9223;50.988;3.162;2023-01-28T14:03:54;7.63;;;4.82;;
18194;SDS011;9223;50.988;3.162;2023-01-28T14:10:10;7.07;;;4.57;;
18194;SDS011;9223;50.988;3.162;2023-01-28T14:22:40;5.75;;;3.50;;
18194;SDS011;9223;50.988;3.162;2023-01-28T14:28:47;4.85;;;3.65;;
18194;SDS011;9223;50.988;3.162;2023-01-28T14:34:52;5.43;;;3.78;;
18194;SDS011;9223;50.988;3.162;2023-01-28T14:40:55;5.50;;;4.35;;
18194;SDS011;9223;50.988;3.162;2023-01-28T14:59:44;5.80;;;4.50;;
18194;SDS011;9223;50.988;3.162;2023-01-28T15:06:00;5.88;;;4.00;;
18194;SDS011;9223;50.988;3.162;2023-01-28T15:12:04;6.18;;;4.18;;
18194;SDS011;9223;50.988;3.162;2023-01-28T15:18:12;5.78;;;4.47;;
18194;SDS011;9223;50.988;3.162;2023-01-28T15:24:18;6.32;;;4.72;;
18194;SDS011;9223;50.988;3.162;2023-01-28T15:30:23;9.35;;;5.05;;
18194;SDS011;9223;50.988;3.162;2023-01-28T15:36:29;5.95;;;4.90;;
18194;SDS011;9223;50.988;3.162;2023-01-28T15:42:32;8.20;;;5.72;;
18194;SDS011;9223;50.988;3.162;2023-01-28T15:48:36;6.90;;;4.72;;
18194;SDS011;9223;50.988;3.162;2023-01-28T15:54:48;5.45;;;4.10;;
18194;SDS011;9223;50.988;3.162;2023-01-28T16:01:01;7.25;;;4.45;;
18194;SDS011;9223;50.988;3.162;2023-01-28T16:07:05;6.45;;;4.38;;
18194;SDS011;9223;50.988;3.162;2023-01-28T16:13:13;6.72;;;4.97;;
18194;SDS011;9223;50.988;3.162;2023-01-28T16:19:21;6.18;;;4.75;;
18194;SDS011;9223;50.988;3.162;2023-01-28T16:25:27;6.45;;;4.50;;
18194;SDS011;9223;50.988;3.162;2023-01-28T16:31:32;8.48;;;5.57;;
18194;SDS011;9223;50.988;3.162;2023-01-28T16:37:36;7.63;;;5.05;;
18194;SDS011;9223;50.988;3.162;2023-01-28T16:43:44;19.65;;;15.45;;
18194;SDS011;9223;50.988;3.162;2023-01-28T16:49:49;8.85;;;7.18;;
18194;SDS011;9223;50.988;3.162;2023-01-28T16:55:52;14.75;;;10.98;;
18194;SDS011;9223;50.988;3.162;2023-01-28T17:01:56;15.05;;;9.00;;
18194;SDS011;9223;50.988;3.162;2023-01-28T17:08:01;11.35;;;8.02;;
18194;SDS011;9223;50.988;3.162;2023-01-28T17:14:04;10.85;;;7.22;;
18194;SDS011;9223;50.988;3.162;2023-01-28T17:20:08;9.23;;;6.72;;
18194;SDS011;9223;50.988;3.162;2023-01-28T17:26:14;9.25;;;6.25;;
18194;SDS011;9223;50.988;3.162;2023-01-28T17:32:17;10.65;;;7.82;;
18194;SDS011;9223;50.988;3.162;2023-01-28T17:38:21;11.93;;;8.43;;
18194;SDS011;9223;50.988;3.162;2023-01-28T17:44:26;11.48;;;9.02;;
18194;SDS011;9223;50.988;3.162;2023-01-28T17:50:30;13.13;;;9.30;;
18194;SDS011;9223;50.988;3.162;2023-01-28T17:56:33;15.80;;;10.05;;
18194;SDS011;9223;50.988;3.162;2023-01-28T18:02:39;18.35;;;11.52;;
18194;SDS011;9223;50.988;3.162;2023-01-28T18:08:42;11.00;;;6.85;;
18194;SDS011;9223;50.988;3.162;2023-01-28T18:14:46;8.43;;;6.40;;
18194;SDS011;9223;50.988;3.162;2023-01-28T18:20:56;7.45;;;5.72;;
18194;SDS011;9223;50.988;3.162;2023-01-28T18:27:00;9.32;;;6.55;;
18194;SDS011;9223;50.988;3.162;2023-01-28T18:33:04;8.25;;;5.95;;
18194;SDS011;9223;50.988;3.162;2023-01-28T18:39:10;8.73;;;6.05;;
18194;SDS011;9223;50.988;3.162;2023-01-28T18:45:14;12.88;;;7.55;;
18194;SDS011;9223;50.988;3.162;2023-01-28T18:51:18;14.60;;;8.00;;
18194;SDS011;9223;50.988;3.162;2023-01-28T18:57:31;21.45;;;14.85;;
18194;SDS011;9223;50.988;3.162;2023-01-28T19:03:35;15.73;;;10.90;;
18194;SDS011;9223;50.988;3.162;2023-01-28T19:09:39;16.55;;;11.25;;
18194;SDS011;9223;50.988;3.162;2023-01-28T19:15:44;13.88;;;9.30;;
18194;SDS011;9223;50.988;3.162;2023-01-28T19:21:47;16.02;;;10.50;;
18194;SDS011;9223;50.988;3.162;2023-01-28T19:27:51;20.40;;;12.98;;
18194;SDS011;9223;50.988;3.162;2023-01-28T19:33:57;21.35;;;14.40;;
18194;SDS011;9223;50.988;3.162;2023-01-28T19:40:01;20.25;;;12.20;;
18194;SDS011;9223;50.988;3.162;2023-01-28T19:46:05;17.48;;;10.82;;
18194;SDS011;9223;50.988;3.162;2023-01-28T19:52:10;17.60;;;10.52;;
18194;SDS011;9223;50.988;3.162;2023-01-28T19:58:14;15.98;;;9.70;;
18194;SDS011;9223;50.988;3.162;2023-01-28T20:04:18;21.30;;;12.93;;
18194;SDS011;9223;50.988;3.162;2023-01-28T20:10:23;19.13;;;12.07;;
18194;SDS011;9223;50.988;3.162;2023-01-28T20:16:27;17.58;;;12.13;;
18194;SDS011;9223;50.988;3.162;2023-01-28T20:22:31;17.98;;;11.98;;
18194;SDS011;9223;50.988;3.162;2023-01-28T20:28:40;19.55;;;13.02;;
18194;SDS011;9223;50.988;3.162;2023-01-28T20:34:43;32.30;;;18.70;;
18194;SDS011;9223;50.988;3.162;2023-01-28T20:40:46;36.45;;;21.52;;
18194;SDS011;9223;50.988;3.162;2023-01-28T20:46:51;40.75;;;22.98;;
18194;SDS011;9223;50.988;3.162;2023-01-28T20:52:55;31.08;;;19.15;;
18194;SDS011;9223;50.988;3.162;2023-01-28T20:58:59;25.52;;;14.43;;
18194;SDS011;9223;50.988;3.162;2023-01-28T21:05:05;19.90;;;12.05;;
18194;SDS011;9223;50.988;3.162;2023-01-28T21:11:09;20.10;;;12.57;;
18194;SDS011;9223;50.988;3.162;2023-01-28T21:17:13;25.60;;;15.30;;
18194;SDS011;9223;50.988;3.162;2023-01-28T21:23:18;29.85;;;16.23;;
18194;SDS011;9223;50.988;3.162;2023-01-28T21:29:21;24.45;;;14.27;;
18194;SDS011;9223;50.988;3.162;2023-01-28T21:35:25;23.60;;;17.02;;
18194;SDS011;9223;50.988;3.162;2023-01-28T21:41:30;23.83;;;15.57;;
18194;SDS011;9223;50.988;3.162;2023-01-28T21:47:33;27.30;;;16.75;;
18194;SDS011;9223;50.988;3.162;2023-01-28T21:53:37;29.80;;;19.48;;
18194;SDS011;9223;50.988;3.162;2023-01-28T21:59:42;32.00;;;21.05;;
18194;SDS011;9223;50.988;3.162;2023-01-28T22:05:52;32.97;;;21.20;;
18194;SDS011;9223;50.988;3.162;2023-01-28T22:11:55;32.28;;;22.58;;
18194;SDS011;9223;50.988;3.162;2023-01-28T22:18:00;28.55;;;19.35;;
18194;SDS011;9223;50.988;3.162;2023-01-28T22:24:04;28.98;;;19.95;;
18194;SDS011;9223;50.988;3.162;2023-01-28T22:30:08;30.70;;;21.05;;
18194;SDS011;9223;50.988;3.162;2023-01-28T22:36:14;31.00;;;21.60;;
18194;SDS011;9223;50.988;3.162;2023-01-28T22:42:18;30.95;;;20.67;;
18194;SDS011;9223;50.988;3.162;2023-01-28T22:48:21;26.38;;;19.48;;
18194;SDS011;9223;50.988;3.162;2023-01-28T22:54:26;29.98;;;20.13;;
18194;SDS011;9223;50.988;3.162;2023-01-28T23:00:29;30.92;;;20.77;;
18194;SDS011;9223;50.988;3.162;2023-01-28T23:06:33;31.90;;;22.13;;
18194;SDS011;9223;50.988;3.162;2023-01-28T23:12:39;32.40;;;20.90;;
18194;SDS011;9223;50.988;3.162;2023-01-28T23:18:42;31.42;;;21.40;;
18194;SDS011;9223;50.988;3.162;2023-01-28T23:25:03;31.00;;;22.02;;
18194;SDS011;9223;50.988;3.162;2023-01-28T23:31:08;33.15;;;21.48;;
18194;SDS011;9223;50.988;3.162;2023-01-28T23:37:12;35.80;;;22.35;;
18194;SDS011;9223;50.988;3.162;2023-01-28T23:43:16;28.77;;;21.20;;
18194;SDS011;9223;50.988;3.162;2023-01-28T23:49:21;45.70;;;26.90;;
18194;SDS011;9223;50.988;3.162;2023-01-28T23:55:25;30.27;;;21.88;;
